Time;durP1;ratioP1;P1;durP2;ratioP2;P2;SDS_P1;SDS_P2;PMS_P1;PMS_P2;Temp;Humidity;BMP_temperature;BMP_pressure;BME280_temperature;BME280_humidity;BME280_pressure;Samples;Min_cycle;Max_cycle;Signal;HPM_P1;HPM_P2
2022/09/19 00:01:15;;;;;;;2.90;1.35;;;8.90;99.90;;;;;;2584966;54;20912;31
2022/09/19 00:03:56;;;;;;;3.37;1.23;;;8.80;99.90;;;;;;2585238;54;20909;31
2022/09/19 00:06:30;;;;;;;1.70;1.00;;;8.80;99.90;;;;;;2585232;54;20037;31
2022/09/19 00:09:09;;;;;;;3.57;0.93;;;8.80;99.90;;;;;;2603443;46;20972;31
2022/09/19 00:11:42;;;;;;;2.00;1.20;;;8.70;99.90;;;;;;2585180;54;20034;31
2022/09/19 00:14:18;;;;;;;5.05;1.40;;;8.70;99.90;;;;;;2603697;46;19961;31
2022/09/19 00:16:57;;;;;;;4.15;1.00;;;8.70;99.90;;;;;;2603394;46;20026;31
2022/09/19 00:19:31;;;;;;;3.58;1.00;;;8.60;99.90;;;;;;2585274;54;20759;31
2022/09/19 00:22:05;;;;;;;2.80;1.20;;;8.60;99.90;;;;;;2584952;54;20934;31
2022/09/19 00:24:49;;;;;;;4.10;1.20;;;8.60;99.90;;;;;;2584899;54;20036;31
2022/09/19 00:27:23;;;;;;;2.50;1.20;;;8.60;99.90;;;;;;2584964;54;21067;31
2022/09/19 00:29:58;;;;;;;2.05;1.10;;;8.50;99.90;;;;;;2585122;54;20053;31
2022/09/19 00:32:33;;;;;;;3.20;1.30;;;8.50;99.90;;;;;;2584816;54;19957;31
2022/09/19 00:35:07;;;;;;;4.43;1.73;;;8.50;99.90;;;;;;2585060;54;20925;31
2022/09/19 00:37:41;;;;;;;3.70;1.75;;;8.50;99.90;;;;;;2584815;54;21025;31
2022/09/19 00:40:13;;;;;;;2.40;1.20;;;8.40;99.90;;;;;;2584919;54;20860;31
2022/09/19 00:42:49;;;;;;;2.40;1.25;;;8.40;99.90;;;;;;2585049;54;20063;31
2022/09/19 00:45:21;;;;;;;2.40;1.40;;;8.40;99.90;;;;;;2602853;46;20929;31
2022/09/19 00:47:55;;;;;;;3.67;1.83;;;8.40;99.90;;;;;;2585029;54;20839;31
2022/09/19 00:50:28;;;;;;;3.65;1.90;;;8.40;99.90;;;;;;2585142;54;21946;31
2022/09/19 00:53:02;;;;;;;1.70;1.15;;;8.40;99.90;;;;;;2583934;54;20907;31
2022/09/19 00:55:36;;;;;;;3.72;1.40;;;8.30;99.90;;;;;;2701118;39;20497;31
2022/09/19 00:58:17;;;;;;;2.27;1.40;;;8.40;99.90;;;;;;2585011;54;20878;31
2022/09/19 01:00:51;;;;;;;2.72;1.67;;;8.30;99.90;;;;;;2584690;54;20873;31
2022/09/19 01:03:25;;;;;;;2.60;1.60;;;8.30;99.90;;;;;;2584718;54;20022;31
2022/09/19 01:06:02;;;;;;;1.90;1.20;;;8.30;99.90;;;;;;2583974;54;20018;31
2022/09/19 01:08:59;;;;;;;2.25;1.20;;;8.30;99.90;;;;;;2584756;54;20022;31
2022/09/19 01:11:54;;;;;;;4.55;1.35;;;8.30;99.90;;;;;;2584509;54;20127;31
2022/09/19 01:14:39;;;;;;;3.20;1.88;;;8.30;99.90;;;;;;2584549;54;20951;31
2022/09/19 01:17:16;;;;;;;3.93;1.87;;;8.20;99.90;;;;;;2584778;54;20058;31
2022/09/19 01:20:13;;;;;;;5.15;2.20;;;8.20;99.90;;;;;;2603134;46;22184;31
2022/09/19 01:22:55;;;;;;;2.47;1.60;;;8.20;99.90;;;;;;2602448;46;20101;31
2022/09/19 01:25:31;;;;;;;5.47;3.13;;;8.20;99.90;;;;;;2584573;54;20965;31
2022/09/19 01:28:24;;;;;;;7.60;2.80;;;8.20;99.90;;;;;;2584669;54;20915;31
2022/09/19 01:31:21;;;;;;;3.40;2.90;;;8.30;99.90;;;;;;2584798;54;20961;31
2022/09/19 01:34:01;;;;;;;3.63;2.60;;;8.20;99.90;;;;;;2603361;47;20089;31
2022/09/19 01:36:37;;;;;;;5.68;3.08;;;8.30;99.90;;;;;;2584711;54;20900;31
2022/09/19 01:39:12;;;;;;;5.45;3.03;;;8.30;99.90;;;;;;2584528;54;20890;31
2022/09/19 01:41:51;;;;;;;6.40;3.22;;;8.30;99.90;;;;;;2603132;47;20908;31
2022/09/19 01:44:28;;;;;;;5.40;2.50;;;8.30;99.90;;;;;;2584929;54;20035;31
2022/09/19 01:47:11;;;;;;;3.63;2.38;;;8.30;99.90;;;;;;2584773;54;20017;31
2022/09/19 01:49:50;;;;;;;5.32;2.38;;;8.30;99.90;;;;;;2585490;54;20786;31
2022/09/19 01:52:37;;;;;;;3.78;2.67;;;8.40;99.90;;;;;;2604049;46;20048;31
2022/09/19 01:55:15;;;;;;;3.05;2.30;;;8.30;99.90;;;;;;2585582;54;20030;31
2022/09/19 01:58:04;;;;;;;5.60;2.40;;;8.30;99.90;;;;;;2585310;54;20026;31
2022/09/19 02:00:43;;;;;;;4.50;1.77;;;8.30;99.90;;;;;;2585490;54;21103;31
2022/09/19 02:03:22;;;;;;;4.67;2.20;;;8.30;99.90;;;;;;2585424;54;20909;31
2022/09/19 02:06:06;;;;;;;5.03;2.33;;;8.30;99.90;;;;;;2585509;54;20030;31
2022/09/19 02:08:43;;;;;;;3.70;2.05;;;8.40;99.90;;;;;;2585415;54;20034;31
2022/09/19 02:11:19;;;;;;;4.32;2.40;;;8.40;99.90;;;;;;2604170;46;20034;31
2022/09/19 02:13:57;;;;;;;5.40;2.53;;;8.50;99.90;;;;;;2604074;46;20726;31
2022/09/19 02:16:37;;;;;;;4.35;2.20;;;8.40;99.90;;;;;;2585448;54;20918;31
2022/09/19 02:19:12;;;;;;;4.30;2.60;;;8.50;99.90;;;;;;2603679;46;20100;31
2022/09/19 02:21:50;;;;;;;4.35;2.90;;;8.50;99.90;;;;;;2585253;54;20022;31
2022/09/19 02:24:27;;;;;;;5.20;3.10;;;8.50;99.90;;;;;;2603883;46;20041;31
2022/09/19 02:27:07;;;;;;;7.75;3.00;;;8.50;99.90;;;;;;2585338;54;20046;31
2022/09/19 02:29:46;;;;;;;6.23;3.30;;;8.50;99.90;;;;;;2585223;54;20075;31
2022/09/19 02:32:25;;;;;;;3.97;2.40;;;8.50;99.90;;;;;;2585334;54;20360;31
2022/09/19 02:34:59;;;;;;;4.13;2.90;;;8.70;99.90;;;;;;2585576;54;20027;31
2022/09/19 02:37:37;;;;;;;8.07;3.03;;;8.50;99.90;;;;;;2585213;54;20782;31
2022/09/19 02:40:20;;;;;;;6.10;2.70;;;8.50;99.90;;;;;;2585409;54;21011;31
2022/09/19 02:42:56;;;;;;;3.47;2.92;;;8.50;99.90;;;;;;2585427;54;20050;31
2022/09/19 02:45:33;;;;;;;7.60;2.85;;;8.50;99.90;;;;;;2585262;54;20755;31
2022/09/19 02:48:16;;;;;;;8.45;2.70;;;8.50;99.90;;;;;;2603922;46;20027;31
2022/09/19 02:50:59;;;;;;;5.40;2.75;;;8.50;99.90;;;;;;2585413;54;20042;31
2022/09/19 02:53:35;;;;;;;3.70;2.70;;;8.40;99.90;;;;;;2603539;46;20822;31
2022/09/19 02:56:18;;;;;;;3.40;2.50;;;8.40;99.90;;;;;;2585267;54;21048;31
2022/09/19 02:58:56;;;;;;;4.60;2.80;;;8.40;99.90;;;;;;2585318;54;20914;31
2022/09/19 03:01:38;;;;;;;4.30;2.47;;;8.50;99.90;;;;;;2585092;54;20953;31
2022/09/19 03:04:12;;;;;;;3.77;3.07;;;8.40;99.90;;;;;;2585330;54;20042;31
2022/09/19 03:06:54;;;;;;;3.45;2.20;;;8.40;99.90;;;;;;2585244;54;20046;31
2022/09/19 03:09:30;;;;;;;2.35;1.60;;;8.40;99.90;;;;;;2585252;54;20034;31
2022/09/19 03:12:18;;;;;;;3.10;1.90;;;8.50;99.90;;;;;;2584937;54;21033;31
2022/09/19 03:14:55;;;;;;;4.50;2.80;;;8.50;99.90;;;;;;2585348;54;20887;31
2022/09/19 03:17:32;;;;;;;3.83;2.37;;;8.40;99.90;;;;;;2585090;54;20974;31
2022/09/19 03:20:11;;;;;;;3.35;2.50;;;8.50;99.90;;;;;;2585256;54;20922;31
2022/09/19 03:22:48;;;;;;;4.30;2.30;;;8.50;99.90;;;;;;2584384;54;20022;31
2022/09/19 03:25:20;;;;;;;2.90;2.00;;;8.50;99.90;;;;;;2584238;54;20810;31
2022/09/19 03:27:53;;;;;;;2.78;1.50;;;8.50;99.90;;;;;;2603683;46;21881;31
2022/09/19 03:30:28;;;;;;;4.40;1.70;;;8.50;99.90;;;;;;2585371;54;20830;31
2022/09/19 03:33:00;;;;;;;2.33;1.42;;;8.70;99.90;;;;;;2584633;54;20057;31
2022/09/19 03:35:38;;;;;;;2.95;1.40;;;8.50;99.90;;;;;;2585164;54;20085;31
2022/09/19 03:38:10;;;;;;;2.80;1.60;;;8.50;99.90;;;;;;2585003;54;20920;31
2022/09/19 03:40:45;;;;;;;1.90;1.00;;;8.50;99.90;;;;;;2585026;54;20954;31
2022/09/19 03:43:20;;;;;;;2.47;1.30;;;8.50;99.90;;;;;;2585068;54;20977;31
2022/09/19 03:45:52;;;;;;;3.25;1.15;;;8.50;99.90;;;;;;2584917;54;20026;31
2022/09/19 03:48:26;;;;;;;2.20;1.40;;;8.50;99.90;;;;;;2585053;54;20048;31
2022/09/19 03:51:03;;;;;;;6.20;1.40;;;8.50;99.90;;;;;;2602033;46;20033;31
2022/09/19 03:53:42;;;;;;;2.30;1.10;;;8.60;99.90;;;;;;2603342;46;20052;31
2022/09/19 03:56:16;;;;;;;2.93;1.00;;;8.50;99.90;;;;;;2584942;54;20922;31
2022/09/19 03:58:49;;;;;;;2.88;1.20;;;8.50;99.90;;;;;;2584074;54;20927;31
2022/09/19 04:01:22;;;;;;;4.30;1.00;;;8.50;99.90;;;;;;2585093;54;20954;31
2022/09/19 04:03:57;;;;;;;2.93;1.53;;;8.50;99.90;;;;;;2584843;54;20027;31
2022/09/19 04:06:33;;;;;;;2.10;1.07;;;8.70;99.90;;;;;;2602707;46;20971;31
2022/09/19 04:09:07;;;;;;;3.50;1.30;;;8.60;99.90;;;;;;2584910;54;21500;31
2022/09/19 04:11:41;;;;;;;2.03;1.17;;;8.60;99.90;;;;;;2585024;54;20772;31
2022/09/19 04:14:16;;;;;;;3.55;1.25;;;8.60;99.90;;;;;;2584996;54;20927;31
2022/09/19 04:16:49;;;;;;;6.57;1.47;;;8.60;99.90;;;;;;2584554;54;21107;31
2022/09/19 04:19:43;;;;;;;1.45;0.85;;;8.60;99.90;;;;;;2585147;54;20972;31
2022/09/19 04:22:37;;;;;;;1.67;0.93;;;8.60;99.90;;;;;;2584953;54;20790;31
2022/09/19 04:25:28;;;;;;;3.30;1.30;;;8.70;99.90;;;;;;2585056;54;20022;31
2022/09/19 04:28:11;;;;;;;2.50;1.00;;;8.60;99.90;;;;;;2584918;54;20026;31
2022/09/19 04:30:45;;;;;;;2.83;0.80;;;8.60;99.90;;;;;;2682758;39;21497;31
2022/09/19 04:33:18;;;;;;;1.20;0.60;;;8.60;99.90;;;;;;2584860;54;20748;31
2022/09/19 04:35:52;;;;;;;2.55;0.70;;;8.50;99.90;;;;;;2584898;54;20038;31
2022/09/19 04:38:31;;;;;;;1.95;0.80;;;8.60;99.90;;;;;;2584831;54;20054;31
2022/09/19 04:41:04;;;;;;;2.45;0.60;;;8.60;99.90;;;;;;2584876;54;20886;31
2022/09/19 04:43:37;;;;;;;1.43;0.70;;;8.50;99.90;;;;;;2603000;46;20967;31
2022/09/19 04:46:41;;;;;;;1.30;0.60;;;8.50;99.90;;;;;;2584501;54;21031;31
2022/09/19 04:49:17;;;;;;;1.50;0.77;;;8.50;99.90;;;;;;2584634;54;20928;31
2022/09/19 04:51:56;;;;;;;1.90;0.80;;;8.50;99.90;;;;;;2585296;54;21841;31
2022/09/19 04:54:45;;;;;;;1.83;0.90;;;8.50;99.90;;;;;;2603669;46;20038;31
2022/09/19 04:57:27;;;;;;;1.83;0.87;;;8.50;99.90;;;;;;2584977;54;20935;31
2022/09/19 05:00:13;;;;;;;3.15;0.93;;;8.50;99.90;;;;;;2682510;39;21452;31
2022/09/19 05:02:56;;;;;;;2.10;1.00;;;8.50;99.90;;;;;;2583861;54;20096;31
2022/09/19 05:05:32;;;;;;;3.00;0.90;;;8.60;99.90;;;;;;2603209;46;19941;31
2022/09/19 05:08:07;;;;;;;2.90;0.65;;;8.60;99.90;;;;;;2584522;54;20947;31
2022/09/19 05:10:46;;;;;;;2.13;0.70;;;8.60;99.90;;;;;;2584985;54;20789;31
2022/09/19 05:13:24;;;;;;;1.80;1.03;;;8.60;99.90;;;;;;2583961;54;20039;31
2022/09/19 05:16:02;;;;;;;2.75;1.17;;;8.60;99.90;;;;;;2584942;54;20238;31
2022/09/19 05:18:41;;;;;;;4.60;1.63;;;8.60;99.90;;;;;;2583670;54;20296;31
2022/09/19 05:21:20;;;;;;;3.15;0.90;;;8.70;99.90;;;;;;2583788;54;20161;31
2022/09/19 05:23:57;;;;;;;2.35;1.23;;;8.60;99.90;;;;;;2583660;54;20031;31
2022/09/19 05:26:38;;;;;;;3.25;1.30;;;8.60;99.90;;;;;;2584914;54;20141;31
2022/09/19 05:29:17;;;;;;;2.83;1.00;;;8.70;99.90;;;;;;2584874;54;20046;31
2022/09/19 05:32:04;;;;;;;2.00;1.57;;;8.70;99.90;;;;;;2584948;54;20035;31
2022/09/19 05:35:02;;;;;;;1.73;0.88;;;8.70;99.90;;;;;;2584512;54;20235;31
2022/09/19 05:38:07;;;;;;;3.30;1.00;;;8.70;99.90;;;;;;2584436;54;20056;31
2022/09/19 05:41:03;;;;;;;2.83;1.15;;;8.70;99.90;;;;;;2682245;39;20660;31
2022/09/19 05:43:53;;;;;;;3.53;1.35;;;8.80;99.90;;;;;;2584610;54;20031;31
2022/09/19 05:46:27;;;;;;;2.95;1.20;;;8.80;99.90;;;;;;2585068;54;21863;31
2022/09/19 05:49:05;;;;;;;5.25;1.80;;;8.80;99.90;;;;;;2584307;54;20034;31
2022/09/19 05:51:40;;;;;;;7.20;2.13;;;8.90;99.90;;;;;;2584611;54;20081;31
2022/09/19 05:54:17;;;;;;;2.72;1.98;;;8.90;99.90;;;;;;2584396;54;20811;31
2022/09/19 05:57:05;;;;;;;3.77;1.60;;;8.90;99.90;;;;;;2584679;54;20939;31
2022/09/19 05:59:42;;;;;;;5.35;2.10;;;8.90;99.90;;;;;;2583741;54;20974;31
2022/09/19 06:02:20;;;;;;;5.05;2.20;;;8.90;99.90;;;;;;2584518;54;20037;31
2022/09/19 06:05:04;;;;;;;3.33;1.87;;;8.90;99.90;;;;;;2584371;54;20027;31
2022/09/19 06:07:39;;;;;;;4.67;1.70;;;8.90;99.90;;;;;;2584472;54;20839;31
2022/09/19 06:10:15;;;;;;;4.25;1.80;;;8.90;99.90;;;;;;2584330;54;20210;31
2022/09/19 06:12:49;;;;;;;4.60;1.70;;;9.00;99.90;;;;;;2584472;54;20849;31
2022/09/19 06:15:27;;;;;;;3.27;1.63;;;9.00;99.90;;;;;;2584683;54;20096;31
2022/09/19 06:18:03;;;;;;;2.78;1.50;;;9.10;99.90;;;;;;2584392;54;20053;31
2022/09/19 06:20:47;;;;;;;4.15;1.70;;;9.10;99.90;;;;;;2584356;54;20033;31
2022/09/19 06:23:29;;;;;;;2.63;1.70;;;9.10;99.90;;;;;;2584476;54;20031;31
2022/09/19 06:26:04;;;;;;;3.20;1.70;;;9.20;99.90;;;;;;2584667;54;21021;31
2022/09/19 06:28:42;;;;;;;3.45;1.75;;;9.20;99.90;;;;;;2584510;54;21436;31
2022/09/19 06:31:19;;;;;;;4.15;1.20;;;9.20;99.90;;;;;;2583453;54;20054;31
2022/09/19 06:34:01;;;;;;;6.13;1.50;;;9.20;99.90;;;;;;2583513;54;20089;31
2022/09/19 06:36:44;;;;;;;2.42;1.38;;;9.30;99.90;;;;;;2603798;46;20081;31
2022/09/19 06:39:26;;;;;;;3.80;1.95;;;9.30;99.90;;;;;;2585286;54;20914;31
2022/09/19 06:42:22;;;;;;;3.55;1.58;;;9.30;99.90;;;;;;2585022;54;20780;31
2022/09/19 06:45:22;;;;;;;2.70;1.35;;;9.30;99.90;;;;;;2585571;54;21931;31
2022/09/19 06:48:21;;;;;;;2.80;1.58;;;9.30;99.90;;;;;;2585019;54;20787;31
2022/09/19 06:51:08;;;;;;;6.63;2.13;;;9.30;99.90;;;;;;2585379;54;20953;31
2022/09/19 06:53:42;;;;;;;3.90;2.20;;;9.50;99.90;;;;;;2585154;54;20897;31
2022/09/19 06:56:16;;;;;;;5.90;2.67;;;9.40;99.90;;;;;;2584993;54;20238;31
2022/09/19 06:58:49;;;;;;;4.30;2.47;;;9.40;99.90;;;;;;2602981;46;20058;31
2022/09/19 07:01:24;;;;;;;3.47;2.45;;;9.50;99.90;;;;;;2585264;54;20110;31
2022/09/19 07:04:02;;;;;;;2.63;2.10;;;9.60;99.90;;;;;;2585348;54;20026;31
2022/09/19 07:06:56;;;;;;;8.35;2.03;;;9.60;99.90;;;;;;2584824;54;20033;31
2022/09/19 07:09:30;;;;;;;4.97;2.72;;;9.70;99.90;;;;;;2584948;54;20026;31
2022/09/19 07:12:05;;;;;;;4.43;2.43;;;9.80;99.90;;;;;;2585052;54;20113;31
2022/09/19 07:14:42;;;;;;;4.13;2.10;;;9.90;99.90;;;;;;2585178;54;20340;31
2022/09/19 07:17:19;;;;;;;8.85;4.30;;;9.70;99.90;;;;;;2585161;54;20920;31
2022/09/19 07:19:56;;;;;;;3.97;2.20;;;9.90;99.90;;;;;;2585226;54;19938;31
2022/09/19 07:23:03;;;;;;;2.30;2.10;;;10.00;99.90;;;;;;2585228;54;20109;31
2022/09/19 07:25:57;;;;;;;2.97;1.93;;;10.20;99.90;;;;;;2585194;54;19942;31
2022/09/19 07:28:34;;;;;;;3.05;1.80;;;10.30;99.90;;;;;;2585068;54;21010;31
2022/09/19 07:31:10;;;;;;;5.80;1.90;;;10.50;99.90;;;;;;2585081;54;20026;31
2022/09/19 07:33:48;;;;;;;2.38;1.63;;;10.60;99.90;;;;;;2584963;54;20081;31
2022/09/19 07:36:33;;;;;;;2.77;1.73;;;10.80;99.90;;;;;;2584093;54;20768;31
2022/09/19 07:39:12;;;;;;;5.38;1.90;;;11.10;99.90;;;;;;2583980;54;21276;31
2022/09/19 07:41:45;;;;;;;;;;;11.30;99.90;;;;;;2583049;54;20038;31
2022/09/19 07:44:40;;;;;;;5.60;1.65;;;11.70;99.90;;;;;;2583606;54;20780;31
2022/09/19 07:47:39;;;;;;;2.63;1.70;;;12.10;99.90;;;;;;2583810;54;20030;31
2022/09/19 07:50:18;;;;;;;4.28;1.50;;;12.10;99.90;;;;;;2583816;54;20870;31
2022/09/19 07:53:07;;;;;;;2.58;1.25;;;12.00;99.90;;;;;;2583717;54;20049;31
2022/09/19 07:55:41;;;;;;;4.60;1.70;;;11.90;99.90;;;;;;2585834;54;20930;31
2022/09/19 07:58:15;;;;;;;3.25;1.83;;;11.80;99.90;;;;;;2586017;54;20901;31
2022/09/19 08:00:54;;;;;;;2.85;1.55;;;11.80;99.90;;;;;;2585853;54;20057;31
2022/09/19 08:03:53;;;;;;;4.00;2.22;;;11.70;99.90;;;;;;2586009;54;20042;31
2022/09/19 08:06:36;;;;;;;5.57;1.67;;;11.70;99.90;;;;;;2585858;54;20108;31
2022/09/19 08:09:13;;;;;;;3.83;1.87;;;11.70;99.90;;;;;;2586106;54;20753;31
2022/09/19 08:12:04;;;;;;;5.00;1.67;;;11.60;99.90;;;;;;2586019;54;20250;31
2022/09/19 08:14:43;;;;;;;4.53;1.73;;;11.60;99.90;;;;;;2586139;54;20037;31
2022/09/19 08:17:16;;;;;;;4.18;1.85;;;11.60;99.90;;;;;;2585853;54;20077;31
2022/09/19 08:19:52;;;;;;;3.80;1.90;;;11.60;99.90;;;;;;2585650;54;20029;31
2022/09/19 08:22:24;;;;;;;2.75;1.77;;;11.60;99.90;;;;;;2585939;54;20097;31
2022/09/19 08:25:07;;;;;;;3.85;2.20;;;11.60;99.90;;;;;;2586171;54;20759;31
2022/09/19 08:27:45;;;;;;;2.53;1.85;;;11.50;99.90;;;;;;2585975;54;20746;31
2022/09/19 08:30:19;;;;;;;4.40;2.13;;;11.40;99.90;;;;;;2586117;54;20026;31
2022/09/19 08:32:52;;;;;;;4.63;2.38;;;11.30;99.90;;;;;;2586007;54;20863;31
2022/09/19 08:35:23;;;;;;;6.88;2.20;;;11.30;99.90;;;;;;2585870;54;20108;31
2022/09/19 08:37:58;;;;;;;3.10;2.10;;;11.40;99.90;;;;;;2585942;54;20026;31
2022/09/19 08:40:37;;;;;;;4.50;2.03;;;11.50;99.90;;;;;;2585773;54;20127;31
2022/09/19 08:43:11;;;;;;;4.30;2.30;;;11.80;99.90;;;;;;2585763;54;20238;31
2022/09/19 08:46:13;;;;;;;3.67;1.83;;;12.30;99.90;;;;;;2591511;31;22368;31
2022/09/19 08:48:50;;;;;;;5.00;1.23;;;12.60;99.90;;;;;;2585832;54;20029;31
2022/09/19 08:51:29;;;;;;;3.43;1.47;;;12.80;99.90;;;;;;2585727;54;20101;31
2022/09/19 08:54:08;;;;;;;4.40;1.52;;;12.90;99.90;;;;;;2585755;54;20866;31
2022/09/19 08:56:45;;;;;;;3.10;1.17;;;12.80;99.90;;;;;;2585566;54;20876;31
2022/09/19 08:59:23;;;;;;;2.67;1.00;;;12.90;99.90;;;;;;2604363;47;20026;31
2022/09/19 09:02:07;;;;;;;3.10;0.95;;;13.00;99.90;;;;;;2683764;39;21268;31
2022/09/19 09:05:16;;;;;;;4.05;1.40;;;13.00;99.90;;;;;;2754504;31;21566;31
2022/09/19 09:07:55;;;;;;;4.85;1.27;;;13.00;99.90;;;;;;2585620;54;20776;31
2022/09/19 09:10:54;;;;;;;2.75;1.00;;;13.10;99.90;;;;;;2585908;54;20093;31
2022/09/19 09:13:54;;;;;;;4.97;2.33;;;13.30;99.90;;;;;;2585841;54;20909;31
2022/09/19 09:16:39;;;;;;;4.28;1.23;;;13.30;99.90;;;;;;2585882;54;20045;31
2022/09/19 09:19:21;;;;;;;3.83;1.27;;;13.20;99.90;;;;;;2585844;54;20093;31
2022/09/19 09:21:59;;;;;;;2.20;1.33;;;13.20;99.90;;;;;;2604302;46;20053;31
2022/09/19 09:24:40;;;;;;;;;;;13.10;99.90;;;;;;2585953;54;20027;31
2022/09/19 09:27:37;;;;;;;4.20;1.50;;;13.00;99.90;;;;;;2585335;54;20694;31
2022/09/19 09:30:21;;;;;;;3.55;1.20;;;12.90;99.90;;;;;;2585606;54;20328;31
2022/09/19 09:33:10;;;;;;;1.90;1.20;;;12.80;99.90;;;;;;2585851;54;20878;31
2022/09/19 09:35:47;;;;;;;3.55;1.65;;;12.80;99.90;;;;;;2585517;54;20939;31
2022/09/19 09:38:26;;;;;;;3.35;1.20;;;12.80;99.90;;;;;;2603831;47;20042;31
2022/09/19 09:44:05;;;;;;;5.33;1.30;;;12.70;99.90;;;;;;2585625;54;20054;31
2022/09/19 09:46:52;;;;;;;4.15;1.30;;;12.70;99.90;;;;;;2585319;54;20262;31
2022/09/19 09:49:29;;;;;;;3.75;1.10;;;12.70;99.90;;;;;;2585784;54;20866;31
2022/09/19 09:52:09;;;;;;;2.08;0.82;;;12.70;99.90;;;;;;2585471;54;20890;31
2022/09/19 09:57:38;;;;;;;4.45;1.20;;;12.60;99.90;;;;;;2585483;54;20086;31
2022/09/19 10:06:06;;;;;;;2.72;1.05;;;12.40;99.90;;;;;;2596214;47;20059;31
2022/09/19 10:08:41;;;;;;;3.10;0.90;;;12.40;99.90;;;;;;2585575;54;20027;31
2022/09/19 10:11:24;;;;;;;5.97;1.25;;;12.30;99.90;;;;;;2605254;46;20865;31
2022/09/19 10:14:20;;;;;;;4.30;1.40;;;12.20;99.90;;;;;;2586575;54;20026;31
2022/09/19 10:16:56;;;;;;;2.73;1.67;;;12.10;99.90;;;;;;2586550;54;20553;31
2022/09/19 10:19:41;;;;;;;3.00;1.58;;;12.10;99.90;;;;;;2586406;54;20116;31
2022/09/19 10:22:15;;;;;;;5.32;2.60;;;12.10;99.90;;;;;;2586491;54;20867;31
2022/09/19 10:24:55;;;;;;;3.55;2.20;;;12.00;99.90;;;;;;2586642;54;20039;31
2022/09/19 10:27:41;;;;;;;6.53;2.90;;;12.00;99.90;;;;;;2586282;54;20126;31
2022/09/19 10:30:41;;;;;;;4.63;2.90;;;11.90;99.90;;;;;;2586136;54;20831;31
2022/09/19 10:33:42;;;;;;;6.10;3.45;;;11.90;99.90;;;;;;2586491;54;20559;31
2022/09/19 10:36:32;;;;;;;7.03;3.67;;;11.90;99.90;;;;;;2586322;54;20834;31
2022/09/19 10:39:12;;;;;;;5.90;3.90;;;11.90;99.90;;;;;;2586135;54;20885;31
2022/09/19 10:41:46;;;;;;;5.70;3.60;;;11.90;99.90;;;;;;2586240;54;20887;31
2022/09/19 10:44:22;;;;;;;7.37;4.23;;;12.00;99.90;;;;;;2586156;54;20022;31
2022/09/19 10:46:57;;;;;;;6.75;4.60;;;11.90;99.90;;;;;;2586421;54;21079;31
2022/09/19 10:49:52;;;;;;;7.40;4.20;;;12.00;99.90;;;;;;2586190;54;20034;31
2022/09/19 10:52:50;;;;;;;4.10;3.63;;;12.10;99.90;;;;;;2586176;54;20124;31
2022/09/19 10:55:25;;;;;;;7.03;3.92;;;12.10;99.90;;;;;;2586484;54;20026;31
2022/09/19 10:58:03;;;;;;;6.05;4.60;;;12.10;99.90;;;;;;2596244;46;20118;31
2022/09/19 11:00:54;;;;;;;10.00;4.85;;;12.20;99.90;;;;;;2586224;54;20982;31
2022/09/19 11:03:31;;;;;;;5.93;4.40;;;12.20;99.90;;;;;;2586133;54;20022;31
2022/09/19 11:06:12;;;;;;;9.15;4.50;;;12.30;99.90;;;;;;2604973;46;20029;31
2022/09/19 11:08:55;;;;;;;7.33;4.83;;;12.10;99.90;;;;;;2604503;46;20033;31
2022/09/19 11:11:36;;;;;;;4.95;4.10;;;12.30;99.90;;;;;;2604851;46;20057;31
2022/09/19 11:14:20;;;;;;;5.53;4.05;;;12.30;99.90;;;;;;2586081;54;20920;31
2022/09/19 11:17:07;;;;;;;7.78;4.30;;;12.20;99.90;;;;;;2586361;54;20042;31
2022/09/19 11:19:53;;;;;;;4.53;4.03;;;12.20;99.90;;;;;;2586413;54;20874;31
2022/09/19 11:22:34;;;;;;;5.65;3.90;;;12.10;99.90;;;;;;2586076;54;19935;31
2022/09/19 11:25:16;;;;;;;5.10;3.95;;;12.30;99.90;;;;;;2585966;54;20055;31
2022/09/19 11:28:05;;;;;;;4.72;3.92;;;12.20;99.90;;;;;;2586166;54;20885;31
2022/09/19 11:30:44;;;;;;;5.50;3.10;;;12.30;99.90;;;;;;2585959;54;20022;31
2022/09/19 11:33:38;;;;;;;5.67;3.50;;;12.30;99.90;;;;;;2586011;54;20751;31
2022/09/19 11:36:45;;;;;;;4.97;3.70;;;12.30;99.90;;;;;;2586072;54;20988;31
2022/09/19 11:39:19;;;;;;;4.10;3.00;;;12.30;99.90;;;;;;2586052;54;20883;31
2022/09/19 11:42:23;;;;;;;6.30;3.20;;;12.30;99.90;;;;;;2585956;54;20820;31
2022/09/19 11:45:04;;;;;;;3.20;2.85;;;12.30;99.90;;;;;;2586017;54;20376;31
2022/09/19 11:47:53;;;;;;;4.40;2.60;;;12.30;99.90;;;;;;2586112;54;20022;31
2022/09/19 11:50:44;;;;;;;5.88;2.70;;;12.30;99.90;;;;;;2585912;54;20269;31
2022/09/19 11:53:29;;;;;;;3.30;2.40;;;12.30;99.90;;;;;;2604666;46;20121;31
2022/09/19 11:56:24;;;;;;;3.63;2.10;;;12.30;99.90;;;;;;2586070;54;21010;31
2022/09/19 11:59:04;;;;;;;4.78;2.33;;;12.40;99.90;;;;;;2586147;54;20102;31
2022/09/19 12:01:45;;;;;;;4.30;2.15;;;12.20;99.90;;;;;;2586106;54;20878;31
2022/09/19 12:04:26;;;;;;;3.67;2.63;;;12.40;99.90;;;;;;2585961;54;20738;31
2022/09/19 12:07:14;;;;;;;3.00;2.13;;;12.20;99.90;;;;;;2586237;54;20034;31
2022/09/19 12:09:47;;;;;;;4.55;2.40;;;12.20;99.90;;;;;;2585961;54;20977;31
2022/09/19 12:12:23;;;;;;;2.38;2.13;;;12.20;99.90;;;;;;2604332;46;20030;31
2022/09/19 12:15:28;;;;;;;3.90;2.50;;;12.40;99.90;;;;;;2586129;54;20569;31
2022/09/19 12:18:10;;;;;;;2.28;1.88;;;12.40;99.90;;;;;;2585790;54;20029;31
2022/09/19 12:20:48;;;;;;;1.75;1.45;;;12.50;99.90;;;;;;2683551;39;20346;31
2022/09/19 12:26:21;;;;;;;2.25;1.33;;;12.70;99.90;;;;;;2585984;54;20027;31
2022/09/19 12:28:57;;;;;;;3.90;1.57;;;12.80;99.90;;;;;;2586038;54;20038;31
2022/09/19 12:31:36;;;;;;;2.93;1.27;;;12.90;99.90;;;;;;2586126;54;20953;31
2022/09/19 12:34:15;;;;;;;1.60;1.15;;;13.00;99.90;;;;;;2604180;46;20049;31
2022/09/19 12:36:50;;;;;;;1.20;0.95;;;13.00;99.90;;;;;;2604873;46;20061;31
2022/09/19 12:39:26;;;;;;;1.23;0.93;;;13.00;99.90;;;;;;2585894;54;20902;31
2022/09/19 12:42:00;;;;;;;1.05;0.80;;;13.10;99.90;;;;;;2586019;54;20023;31
2022/09/19 12:44:36;;;;;;;2.15;1.02;;;13.00;99.90;;;;;;2587976;54;20056;31
2022/09/19 12:47:19;;;;;;;3.93;1.30;;;13.10;99.90;;;;;;2586095;54;20897;31
2022/09/19 12:50:19;;;;;;;2.20;1.90;;;13.20;99.90;;;;;;2585942;54;20073;31
2022/09/19 12:53:04;;;;;;;2.15;1.20;;;13.20;99.90;;;;;;2587755;54;20938;-79
2022/09/19 12:55:40;;;;;;;2.10;1.13;;;13.20;99.90;;;;;;2586124;54;20913;31
2022/09/19 12:58:17;;;;;;;1.70;0.88;;;13.20;99.90;;;;;;2586009;54;20867;31
2022/09/19 13:00:50;;;;;;;1.30;0.85;;;13.20;99.90;;;;;;2586221;54;21357;31
2022/09/19 13:03:26;;;;;;;1.85;1.00;;;13.20;99.90;;;;;;2585762;54;20022;31
2022/09/19 13:06:00;;;;;;;1.60;0.98;;;13.00;99.90;;;;;;2585852;54;20030;31
2022/09/19 13:08:34;;;;;;;1.40;0.90;;;13.10;99.90;;;;;;2585686;54;20023;31
2022/09/19 13:11:10;;;;;;;4.25;1.00;;;12.90;99.90;;;;;;2585679;54;20041;31
2022/09/19 13:13:47;;;;;;;1.65;1.00;;;12.70;99.90;;;;;;2585759;54;20065;31
2022/09/19 13:16:20;;;;;;;3.27;1.57;;;12.70;99.90;;;;;;2585911;54;20097;31
2022/09/19 13:24:31;;;;;;;3.00;1.50;;;12.50;99.90;;;;;;2585830;54;20743;31
2022/09/19 13:27:05;;;;;;;3.60;1.40;;;12.50;99.90;;;;;;2584946;54;21024;31
2022/09/19 13:29:49;;;;;;;2.40;1.65;;;12.50;99.90;;;;;;2585703;54;20239;31
2022/09/19 13:32:34;;;;;;;1.75;1.60;;;12.60;99.90;;;;;;2585881;54;20062;31
2022/09/19 13:35:22;;;;;;;2.60;1.80;;;12.50;99.90;;;;;;2604312;47;20022;31
2022/09/19 13:37:57;;;;;;;2.00;1.50;;;12.50;99.90;;;;;;2585699;54;20064;31
2022/09/19 13:40:57;;;;;;;2.05;1.30;;;12.50;99.90;;;;;;2585759;54;20029;31
2022/09/19 13:43:39;;;;;;;4.10;1.25;;;12.50;99.90;;;;;;2585395;54;20027;31
2022/09/19 13:46:15;;;;;;;2.80;1.15;;;12.60;99.90;;;;;;2586445;54;20273;31
2022/09/19 13:48:49;;;;;;;2.73;1.37;;;12.40;99.90;;;;;;2586681;54;20952;31
2022/09/19 13:51:32;;;;;;;1.73;1.10;;;12.50;99.90;;;;;;2589823;39;22385;31
2022/09/19 13:54:33;;;;;;;1.73;1.30;;;12.50;99.90;;;;;;2586690;54;19950;31
2022/09/19 13:57:06;;;;;;;1.60;1.10;;;12.60;99.90;;;;;;2605238;46;20109;31
2022/09/19 13:59:40;;;;;;;1.90;1.00;;;12.60;99.90;;;;;;2586808;54;20022;31
2022/09/19 14:02:27;;;;;;;1.80;1.10;;;12.60;99.90;;;;;;2586314;54;20813;31
2022/09/19 14:05:08;;;;;;;2.20;1.27;;;12.70;99.90;;;;;;2605365;46;20026;31
2022/09/19 14:07:50;;;;;;;1.77;1.30;;;12.70;99.90;;;;;;2605155;46;20049;31
2022/09/19 14:10:48;;;;;;;1.40;1.10;;;12.90;99.90;;;;;;2596535;46;20026;31
2022/09/19 14:13:34;;;;;;;4.28;1.60;;;12.80;99.90;;;;;;2586211;54;20412;31
2022/09/19 14:16:13;;;;;;;1.70;1.10;;;12.90;99.90;;;;;;2586646;54;20833;31
2022/09/19 14:18:54;;;;;;;1.65;1.45;;;12.90;99.90;;;;;;2605411;46;20234;31
2022/09/19 14:21:57;;;;;;;3.50;1.25;;;12.90;99.90;;;;;;2586286;54;20852;31
2022/09/19 14:25:02;;;;;;;3.33;1.50;;;12.90;99.90;;;;;;2590415;46;20834;31
2022/09/19 14:28:12;;;;;;;2.42;1.33;;;13.00;99.90;;;;;;2586445;54;20956;31
2022/09/19 14:31:04;;;;;;;3.50;1.40;;;13.00;99.90;;;;;;2586271;54;20924;31
2022/09/19 14:34:23;;;;;;;1.60;1.00;;;13.10;99.90;;;;;;2586332;54;20825;31
2022/09/19 14:37:33;;;;;;;2.70;1.20;;;13.10;99.90;;;;;;2586341;54;20045;31